sensor_id;sensor_type;location;lat;lon;timestamp;P1;durP1;ratioP1;P2;durP2;ratioP2
34896;SDS011;43407;51.828;-2.298;2023-03-12T00:00:51;29.67;;;9.18;;
34896;SDS011;43407;51.828;-2.298;2023-03-12T00:03:17;27.08;;;9.52;;
34896;SDS011;43407;51.828;-2.298;2023-03-12T00:05:43;31.50;;;10.40;;
34896;SDS011;43407;51.828;-2.298;2023-03-12T00:08:09;35.47;;;10.65;;
34896;SDS011;43407;51.828;-2.298;2023-03-12T00:10:36;30.90;;;9.52;;
34896;SDS011;43407;51.828;-2.298;2023-03-12T00:13:03;30.13;;;9.73;;
34896;SDS011;43407;51.828;-2.298;2023-03-12T00:15:29;35.33;;;10.13;;
34896;SDS011;43407;51.828;-2.298;2023-03-12T00:17:54;31.10;;;10.38;;
34896;SDS011;43407;51.828;-2.298;2023-03-12T00:20:20;31.80;;;10.32;;
34896;SDS011;43407;51.828;-2.298;2023-03-12T00:22:47;37.10;;;11.18;;
34896;SDS011;43407;51.828;-2.298;2023-03-12T00:25:14;32.80;;;10.70;;
34896;SDS011;43407;51.828;-2.298;2023-03-12T00:27:41;40.70;;;12.00;;
34896;SDS011;43407;51.828;-2.298;2023-03-12T00:30:08;38.30;;;11.25;;
34896;SDS011;43407;51.828;-2.298;2023-03-12T00:32:35;47.53;;;12.40;;
34896;SDS011;43407;51.828;-2.298;2023-03-12T00:35:00;32.17;;;10.80;;
34896;SDS011;43407;51.828;-2.298;2023-03-12T00:37:26;30.90;;;9.68;;
34896;SDS011;43407;51.828;-2.298;2023-03-12T00:39:52;30.08;;;10.10;;
34896;SDS011;43407;51.828;-2.298;2023-03-12T00:42:18;23.52;;;8.77;;
34896;SDS011;43407;51.828;-2.298;2023-03-12T00:44:44;35.63;;;10.02;;
34896;SDS011;43407;51.828;-2.298;2023-03-12T00:47:11;31.85;;;10.13;;
34896;SDS011;43407;51.828;-2.298;2023-03-12T00:49:37;32.50;;;10.38;;
34896;SDS011;43407;51.828;-2.298;2023-03-12T00:52:04;28.58;;;9.63;;
34896;SDS011;43407;51.828;-2.298;2023-03-12T00:54:30;30.88;;;9.55;;
34896;SDS011;43407;51.828;-2.298;2023-03-12T00:56:56;31.60;;;8.63;;
34896;SDS011;43407;51.828;-2.298;2023-03-12T00:59:21;30.42;;;9.75;;
34896;SDS011;43407;51.828;-2.298;2023-03-12T01:01:47;21.90;;;8.07;;
34896;SDS011;43407;51.828;-2.298;2023-03-12T01:04:13;27.88;;;8.75;;
34896;SDS011;43407;51.828;-2.298;2023-03-12T01:06:39;26.20;;;8.65;;
34896;SDS011;43407;51.828;-2.298;2023-03-12T01:09:05;29.88;;;9.32;;
34896;SDS011;43407;51.828;-2.298;2023-03-12T01:11:32;23.83;;;9.23;;
34896;SDS011;43407;51.828;-2.298;2023-03-12T01:14:01;32.55;;;9.00;;
34896;SDS011;43407;51.828;-2.298;2023-03-12T01:16:28;25.08;;;6.88;;
34896;SDS011;43407;51.828;-2.298;2023-03-12T01:18:54;15.55;;;6.80;;
34896;SDS011;43407;51.828;-2.298;2023-03-12T01:21:20;27.67;;;7.00;;
34896;SDS011;43407;51.828;-2.298;2023-03-12T01:23:46;23.05;;;7.28;;
34896;SDS011;43407;51.828;-2.298;2023-03-12T01:26:12;17.63;;;6.70;;
34896;SDS011;43407;51.828;-2.298;2023-03-12T01:28:38;22.30;;;7.15;;
34896;SDS011;43407;51.828;-2.298;2023-03-12T01:31:05;28.05;;;7.90;;
34896;SDS011;43407;51.828;-2.298;2023-03-12T01:33:32;28.67;;;8.20;;
34896;SDS011;43407;51.828;-2.298;2023-03-12T01:35:57;22.88;;;7.57;;
34896;SDS011;43407;51.828;-2.298;2023-03-12T01:38:23;25.50;;;7.20;;
34896;SDS011;43407;51.828;-2.298;2023-03-12T01:40:49;22.27;;;7.22;;
34896;SDS011;43407;51.828;-2.298;2023-03-12T01:43:23;23.98;;;7.00;;
34896;SDS011;43407;51.828;-2.298;2023-03-12T01:48:41;35.42;;;8.93;;
34896;SDS011;43407;51.828;-2.298;2023-03-12T01:51:09;26.45;;;7.95;;
34896;SDS011;43407;51.828;-2.298;2023-03-12T01:53:37;26.10;;;7.57;;
34896;SDS011;43407;51.828;-2.298;2023-03-12T01:56:04;35.20;;;8.43;;
34896;SDS011;43407;51.828;-2.298;2023-03-12T01:58:31;36.95;;;9.10;;
34896;SDS011;43407;51.828;-2.298;2023-03-12T02:00:58;46.35;;;9.13;;
34896;SDS011;43407;51.828;-2.298;2023-03-12T02:03:24;50.20;;;9.95;;
34896;SDS011;43407;51.828;-2.298;2023-03-12T02:05:50;55.47;;;11.07;;
34896;SDS011;43407;51.828;-2.298;2023-03-12T02:08:19;43.67;;;9.73;;
34896;SDS011;43407;51.828;-2.298;2023-03-12T02:10:45;39.67;;;8.00;;
34896;SDS011;43407;51.828;-2.298;2023-03-12T02:13:11;41.00;;;9.15;;
34896;SDS011;43407;51.828;-2.298;2023-03-12T02:15:37;46.00;;;9.43;;
34896;SDS011;43407;51.828;-2.298;2023-03-12T02:18:07;44.80;;;8.85;;
34896;SDS011;43407;51.828;-2.298;2023-03-12T02:20:38;50.20;;;8.57;;
34896;SDS011;43407;51.828;-2.298;2023-03-12T02:23:11;52.65;;;8.93;;
34896;SDS011;43407;51.828;-2.298;2023-03-12T02:25:39;60.08;;;9.48;;
34896;SDS011;43407;51.828;-2.298;2023-03-12T02:28:08;59.20;;;9.98;;
34896;SDS011;43407;51.828;-2.298;2023-03-12T02:30:35;68.28;;;11.63;;
34896;SDS011;43407;51.828;-2.298;2023-03-12T02:33:04;58.50;;;10.32;;
34896;SDS011;43407;51.828;-2.298;2023-03-12T02:35:31;63.20;;;9.68;;
34896;SDS011;43407;51.828;-2.298;2023-03-12T02:37:57;61.67;;;9.98;;
34896;SDS011;43407;51.828;-2.298;2023-03-12T02:42:53;61.72;;;9.52;;
34896;SDS011;43407;51.828;-2.298;2023-03-12T02:45:20;79.40;;;11.15;;
34896;SDS011;43407;51.828;-2.298;2023-03-12T02:47:46;65.05;;;11.00;;
34896;SDS011;43407;51.828;-2.298;2023-03-12T02:50:12;61.53;;;10.98;;
34896;SDS011;43407;51.828;-2.298;2023-03-12T02:52:38;66.60;;;10.68;;
34896;SDS011;43407;51.828;-2.298;2023-03-12T02:55:04;62.45;;;10.82;;
34896;SDS011;43407;51.828;-2.298;2023-03-12T02:57:31;63.75;;;11.25;;
34896;SDS011;43407;51.828;-2.298;2023-03-12T02:59:56;63.42;;;12.32;;
34896;SDS011;43407;51.828;-2.298;2023-03-12T03:02:22;102.90;;;13.55;;
34896;SDS011;43407;51.828;-2.298;2023-03-12T03:04:48;81.55;;;12.70;;
34896;SDS011;43407;51.828;-2.298;2023-03-12T03:07:13;73.05;;;12.05;;
34896;SDS011;43407;51.828;-2.298;2023-03-12T03:09:39;73.93;;;12.60;;
34896;SDS011;43407;51.828;-2.298;2023-03-12T03:12:05;78.78;;;12.55;;
34896;SDS011;43407;51.828;-2.298;2023-03-12T03:14:30;69.38;;;13.02;;
34896;SDS011;43407;51.828;-2.298;2023-03-12T03:16:56;76.60;;;12.45;;
34896;SDS011;43407;51.828;-2.298;2023-03-12T03:19:21;78.53;;;13.60;;
34896;SDS011;43407;51.828;-2.298;2023-03-12T03:21:47;65.82;;;11.63;;
34896;SDS011;43407;51.828;-2.298;2023-03-12T03:24:12;83.75;;;14.20;;
34896;SDS011;43407;51.828;-2.298;2023-03-12T03:26:38;72.32;;;12.90;;
34896;SDS011;43407;51.828;-2.298;2023-03-12T03:29:03;77.22;;;13.73;;
34896;SDS011;43407;51.828;-2.298;2023-03-12T03:31:29;77.32;;;13.18;;
34896;SDS011;43407;51.828;-2.298;2023-03-12T03:33:54;79.65;;;13.43;;
34896;SDS011;43407;51.828;-2.298;2023-03-12T03:36:20;99.30;;;14.43;;
34896;SDS011;43407;51.828;-2.298;2023-03-12T03:38:47;81.30;;;12.85;;
34896;SDS011;43407;51.828;-2.298;2023-03-12T03:41:17;74.93;;;14.73;;
34896;SDS011;43407;51.828;-2.298;2023-03-12T03:43:44;62.08;;;12.15;;
34896;SDS011;43407;51.828;-2.298;2023-03-12T03:46:10;54.90;;;10.43;;
34896;SDS011;43407;51.828;-2.298;2023-03-12T03:48:36;53.80;;;10.98;;
34896;SDS011;43407;51.828;-2.298;2023-03-12T03:51:02;54.83;;;10.27;;
34896;SDS011;43407;51.828;-2.298;2023-03-12T03:53:28;45.10;;;8.85;;
34896;SDS011;43407;51.828;-2.298;2023-03-12T03:55:54;54.88;;;9.63;;
34896;SDS011;43407;51.828;-2.298;2023-03-12T03:58:19;40.80;;;9.32;;
34896;SDS011;43407;51.828;-2.298;2023-03-12T04:00:45;52.83;;;11.27;;
34896;SDS011;43407;51.828;-2.298;2023-03-12T04:03:11;56.95;;;11.18;;
34896;SDS011;43407;51.828;-2.298;2023-03-12T04:05:38;44.05;;;10.07;;
34896;SDS011;43407;51.828;-2.298;2023-03-12T04:08:04;49.85;;;10.55;;
34896;SDS011;43407;51.828;-2.298;2023-03-12T04:10:30;39.53;;;10.20;;
34896;SDS011;43407;51.828;-2.298;2023-03-12T04:12:55;43.10;;;9.55;;
34896;SDS011;43407;51.828;-2.298;2023-03-12T04:15:21;49.40;;;10.15;;
34896;SDS011;43407;51.828;-2.298;2023-03-12T04:17:46;46.33;;;10.63;;
34896;SDS011;43407;51.828;-2.298;2023-03-12T04:20:12;51.70;;;11.88;;
34896;SDS011;43407;51.828;-2.298;2023-03-12T04:22:38;53.25;;;11.98;;
34896;SDS011;43407;51.828;-2.298;2023-03-12T04:25:03;51.67;;;11.20;;
34896;SDS011;43407;51.828;-2.298;2023-03-12T04:27:31;63.40;;;11.75;;
34896;SDS011;43407;51.828;-2.298;2023-03-12T04:29:56;64.72;;;11.77;;
34896;SDS011;43407;51.828;-2.298;2023-03-12T04:32:22;62.17;;;11.55;;
34896;SDS011;43407;51.828;-2.298;2023-03-12T04:34:47;55.35;;;11.55;;
34896;SDS011;43407;51.828;-2.298;2023-03-12T04:37:13;68.88;;;11.82;;
34896;SDS011;43407;51.828;-2.298;2023-03-12T04:39:39;53.10;;;11.23;;
34896;SDS011;43407;51.828;-2.298;2023-03-12T04:42:05;61.47;;;12.40;;
34896;SDS011;43407;51.828;-2.298;2023-03-12T04:44:30;51.90;;;11.35;;
34896;SDS011;43407;51.828;-2.298;2023-03-12T04:46:56;64.45;;;13.18;;
34896;SDS011;43407;51.828;-2.298;2023-03-12T04:49:21;55.92;;;10.80;;
34896;SDS011;43407;51.828;-2.298;2023-03-12T04:51:47;69.38;;;12.48;;
34896;SDS011;43407;51.828;-2.298;2023-03-12T04:54:12;61.78;;;12.48;;
34896;SDS011;43407;51.828;-2.298;2023-03-12T04:56:38;67.32;;;11.27;;
34896;SDS011;43407;51.828;-2.298;2023-03-12T04:59:04;54.50;;;10.60;;
34896;SDS011;43407;51.828;-2.298;2023-03-12T05:01:31;57.70;;;11.10;;
34896;SDS011;43407;51.828;-2.298;2023-03-12T05:03:57;43.45;;;9.70;;
34896;SDS011;43407;51.828;-2.298;2023-03-12T05:06:23;47.50;;;9.68;;
34896;SDS011;43407;51.828;-2.298;2023-03-12T05:08:49;39.42;;;8.40;;
34896;SDS011;43407;51.828;-2.298;2023-03-12T05:11:15;41.63;;;8.13;;
34896;SDS011;43407;51.828;-2.298;2023-03-12T05:13:41;39.92;;;8.60;;
34896;SDS011;43407;51.828;-2.298;2023-03-12T05:16:06;48.90;;;8.80;;
34896;SDS011;43407;51.828;-2.298;2023-03-12T05:18:32;57.60;;;10.10;;
34896;SDS011;43407;51.828;-2.298;2023-03-12T05:23:27;39.28;;;7.65;;
34896;SDS011;43407;51.828;-2.298;2023-03-12T05:25:53;44.15;;;7.43;;
34896;SDS011;43407;51.828;-2.298;2023-03-12T05:28:18;38.50;;;7.88;;
34896;SDS011;43407;51.828;-2.298;2023-03-12T05:30:44;50.42;;;8.50;;
34896;SDS011;43407;51.828;-2.298;2023-03-12T05:33:10;46.20;;;9.07;;
34896;SDS011;43407;51.828;-2.298;2023-03-12T05:35:36;49.97;;;8.85;;
34896;SDS011;43407;51.828;-2.298;2023-03-12T05:38:02;47.85;;;8.27;;
34896;SDS011;43407;51.828;-2.298;2023-03-12T05:40:27;43.03;;;8.48;;
34896;SDS011;43407;51.828;-2.298;2023-03-12T05:42:53;36.90;;;7.32;;
34896;SDS011;43407;51.828;-2.298;2023-03-12T05:45:18;42.05;;;8.18;;
34896;SDS011;43407;51.828;-2.298;2023-03-12T05:47:44;43.20;;;8.20;;
34896;SDS011;43407;51.828;-2.298;2023-03-12T05:50:10;62.53;;;11.07;;
34896;SDS011;43407;51.828;-2.298;2023-03-12T05:52:35;47.13;;;9.40;;
34896;SDS011;43407;51.828;-2.298;2023-03-12T05:55:01;70.00;;;10.52;;
34896;SDS011;43407;51.828;-2.298;2023-03-12T05:57:26;70.35;;;10.32;;
34896;SDS011;43407;51.828;-2.298;2023-03-12T05:59:52;67.00;;;11.38;;
34896;SDS011;43407;51.828;-2.298;2023-03-12T06:02:17;68.82;;;11.25;;
34896;SDS011;43407;51.828;-2.298;2023-03-12T06:04:44;62.05;;;9.95;;
34896;SDS011;43407;51.828;-2.298;2023-03-12T06:07:09;56.13;;;10.93;;
34896;SDS011;43407;51.828;-2.298;2023-03-12T06:09:35;60.42;;;10.10;;
34896;SDS011;43407;51.828;-2.298;2023-03-12T06:12:00;59.17;;;10.40;;
34896;SDS011;43407;51.828;-2.298;2023-03-12T06:14:26;53.80;;;9.82;;
34896;SDS011;43407;51.828;-2.298;2023-03-12T06:16:51;58.60;;;9.20;;
34896;SDS011;43407;51.828;-2.298;2023-03-12T06:19:17;53.25;;;9.10;;
34896;SDS011;43407;51.828;-2.298;2023-03-12T06:21:42;51.70;;;9.60;;
34896;SDS011;43407;51.828;-2.298;2023-03-12T06:24:08;47.08;;;8.57;;
34896;SDS011;43407;51.828;-2.298;2023-03-12T06:26:34;43.58;;;8.07;;
34896;SDS011;43407;51.828;-2.298;2023-03-12T06:28:59;46.13;;;8.10;;
34896;SDS011;43407;51.828;-2.298;2023-03-12T06:31:25;42.55;;;8.50;;
34896;SDS011;43407;51.828;-2.298;2023-03-12T06:33:50;43.95;;;8.93;;
34896;SDS011;43407;51.828;-2.298;2023-03-12T06:36:18;45.38;;;8.63;;
34896;SDS011;43407;51.828;-2.298;2023-03-12T06:38:43;42.13;;;7.45;;
34896;SDS011;43407;51.828;-2.298;2023-03-12T06:41:10;47.75;;;8.60;;
34896;SDS011;43407;51.828;-2.298;2023-03-12T06:43:38;31.40;;;7.20;;
34896;SDS011;43407;51.828;-2.298;2023-03-12T06:46:06;33.55;;;6.45;;
34896;SDS011;43407;51.828;-2.298;2023-03-12T06:48:33;36.38;;;7.00;;
34896;SDS011;43407;51.828;-2.298;2023-03-12T06:51:01;37.30;;;7.38;;
34896;SDS011;43407;51.828;-2.298;2023-03-12T06:53:27;32.83;;;6.07;;
34896;SDS011;43407;51.828;-2.298;2023-03-12T06:55:53;26.65;;;5.82;;
34896;SDS011;43407;51.828;-2.298;2023-03-12T06:58:18;30.42;;;6.10;;
34896;SDS011;43407;51.828;-2.298;2023-03-12T07:00:44;26.25;;;5.30;;
34896;SDS011;43407;51.828;-2.298;2023-03-12T07:03:09;39.50;;;6.25;;
34896;SDS011;43407;51.828;-2.298;2023-03-12T07:05:35;35.22;;;6.57;;
34896;SDS011;43407;51.828;-2.298;2023-03-12T07:08:00;34.33;;;6.07;;
34896;SDS011;43407;51.828;-2.298;2023-03-12T07:10:26;26.48;;;5.85;;
34896;SDS011;43407;51.828;-2.298;2023-03-12T07:12:55;39.88;;;6.95;;
34896;SDS011;43407;51.828;-2.298;2023-03-12T07:15:21;40.50;;;7.18;;
34896;SDS011;43407;51.828;-2.298;2023-03-12T07:17:47;52.85;;;8.30;;
34896;SDS011;43407;51.828;-2.298;2023-03-12T07:20:13;37.40;;;8.50;;
34896;SDS011;43407;51.828;-2.298;2023-03-12T07:22:38;44.45;;;8.30;;
34896;SDS011;43407;51.828;-2.298;2023-03-12T07:25:04;37.92;;;7.65;;
34896;SDS011;43407;51.828;-2.298;2023-03-12T07:27:30;56.53;;;9.35;;
34896;SDS011;43407;51.828;-2.298;2023-03-12T07:29:55;46.92;;;8.68;;
34896;SDS011;43407;51.828;-2.298;2023-03-12T07:32:21;46.75;;;8.65;;
34896;SDS011;43407;51.828;-2.298;2023-03-12T07:34:46;48.20;;;8.30;;
34896;SDS011;43407;51.828;-2.298;2023-03-12T07:37:12;57.97;;;9.18;;
34896;SDS011;43407;51.828;-2.298;2023-03-12T07:39:37;49.60;;;8.98;;
34896;SDS011;43407;51.828;-2.298;2023-03-12T07:42:03;48.60;;;9.27;;
34896;SDS011;43407;51.828;-2.298;2023-03-12T07:44:28;56.80;;;8.63;;
34896;SDS011;43407;51.828;-2.298;2023-03-12T07:46:54;49.47;;;8.93;;
34896;SDS011;43407;51.828;-2.298;2023-03-12T07:49:19;33.45;;;6.97;;
34896;SDS011;43407;51.828;-2.298;2023-03-12T07:51:45;53.25;;;8.52;;
34896;SDS011;43407;51.828;-2.298;2023-03-12T07:54:11;44.55;;;7.53;;
34896;SDS011;43407;51.828;-2.298;2023-03-12T07:56:36;46.72;;;7.50;;
34896;SDS011;43407;51.828;-2.298;2023-03-12T07:59:02;39.55;;;7.78;;
34896;SDS011;43407;51.828;-2.298;2023-03-12T08:01:27;37.72;;;7.50;;
34896;SDS011;43407;51.828;-2.298;2023-03-12T08:03:59;36.88;;;7.85;;
34896;SDS011;43407;51.828;-2.298;2023-03-12T08:06:25;37.28;;;7.30;;
34896;SDS011;43407;51.828;-2.298;2023-03-12T08:08:51;32.60;;;6.60;;
34896;SDS011;43407;51.828;-2.298;2023-03-12T08:11:16;27.00;;;5.90;;
34896;SDS011;43407;51.828;-2.298;2023-03-12T08:13:42;34.13;;;7.60;;
34896;SDS011;43407;51.828;-2.298;2023-03-12T08:16:07;47.63;;;8.25;;
34896;SDS011;43407;51.828;-2.298;2023-03-12T08:18:33;32.20;;;7.35;;
34896;SDS011;43407;51.828;-2.298;2023-03-12T08:20:58;44.85;;;8.30;;
34896;SDS011;43407;51.828;-2.298;2023-03-12T08:23:24;43.25;;;8.18;;
34896;SDS011;43407;51.828;-2.298;2023-03-12T08:25:50;45.33;;;8.18;;
34896;SDS011;43407;51.828;-2.298;2023-03-12T08:28:17;44.85;;;8.48;;
34896;SDS011;43407;51.828;-2.298;2023-03-12T08:30:47;40.72;;;8.38;;
34896;SDS011;43407;51.828;-2.298;2023-03-12T08:33:13;42.67;;;8.55;;
34896;SDS011;43407;51.828;-2.298;2023-03-12T08:35:39;36.30;;;7.25;;
34896;SDS011;43407;51.828;-2.298;2023-03-12T08:38:05;34.45;;;7.13;;
34896;SDS011;43407;51.828;-2.298;2023-03-12T08:40:30;33.97;;;6.68;;
34896;SDS011;43407;51.828;-2.298;2023-03-12T08:42:56;35.55;;;6.93;;
34896;SDS011;43407;51.828;-2.298;2023-03-12T08:45:21;46.35;;;7.63;;
34896;SDS011;43407;51.828;-2.298;2023-03-12T08:47:47;33.10;;;6.70;;
34896;SDS011;43407;51.828;-2.298;2023-03-12T08:50:13;31.77;;;6.68;;
34896;SDS011;43407;51.828;-2.298;2023-03-12T08:52:40;40.45;;;7.85;;
34896;SDS011;43407;51.828;-2.298;2023-03-12T08:55:06;40.88;;;7.80;;
34896;SDS011;43407;51.828;-2.298;2023-03-12T08:57:32;39.60;;;7.45;;
34896;SDS011;43407;51.828;-2.298;2023-03-12T08:59:57;38.70;;;7.88;;
34896;SDS011;43407;51.828;-2.298;2023-03-12T09:02:23;36.35;;;8.20;;
34896;SDS011;43407;51.828;-2.298;2023-03-12T09:04:48;37.22;;;8.35;;
34896;SDS011;43407;51.828;-2.298;2023-03-12T09:07:14;41.15;;;9.27;;
34896;SDS011;43407;51.828;-2.298;2023-03-12T09:09:42;46.55;;;8.95;;
34896;SDS011;43407;51.828;-2.298;2023-03-12T09:12:08;36.15;;;7.95;;
34896;SDS011;43407;51.828;-2.298;2023-03-12T09:14:34;40.83;;;8.88;;
34896;SDS011;43407;51.828;-2.298;2023-03-12T09:17:01;49.17;;;10.07;;
34896;SDS011;43407;51.828;-2.298;2023-03-12T09:19:27;42.50;;;9.23;;
34896;SDS011;43407;51.828;-2.298;2023-03-12T09:21:53;38.30;;;8.73;;
34896;SDS011;43407;51.828;-2.298;2023-03-12T09:24:18;43.25;;;8.43;;
34896;SDS011;43407;51.828;-2.298;2023-03-12T09:26:44;38.83;;;8.75;;
34896;SDS011;43407;51.828;-2.298;2023-03-12T09:29:10;35.75;;;7.72;;
34896;SDS011;43407;51.828;-2.298;2023-03-12T09:31:35;43.95;;;8.68;;
34896;SDS011;43407;51.828;-2.298;2023-03-12T09:34:01;39.38;;;8.15;;
34896;SDS011;43407;51.828;-2.298;2023-03-12T09:36:27;34.60;;;7.68;;
34896;SDS011;43407;51.828;-2.298;2023-03-12T09:38:53;42.45;;;8.63;;
34896;SDS011;43407;51.828;-2.298;2023-03-12T09:41:19;34.03;;;7.68;;
34896;SDS011;43407;51.828;-2.298;2023-03-12T09:43:55;29.02;;;6.97;;
34896;SDS011;43407;51.828;-2.298;2023-03-12T09:46:23;36.63;;;7.35;;
34896;SDS011;43407;51.828;-2.298;2023-03-12T09:48:51;39.80;;;6.75;;
34896;SDS011;43407;51.828;-2.298;2023-03-12T09:51:21;32.55;;;6.72;;
34896;SDS011;43407;51.828;-2.298;2023-03-12T09:53:52;39.17;;;6.55;;
34896;SDS011;43407;51.828;-2.298;2023-03-12T09:56:20;37.00;;;6.95;;
34896;SDS011;43407;51.828;-2.298;2023-03-12T09:58:47;34.90;;;7.40;;
34896;SDS011;43407;51.828;-2.298;2023-03-12T10:01:26;38.03;;;6.93;;
34896;SDS011;43407;51.828;-2.298;2023-03-12T10:17:45;39.08;;;8.18;;
34896;SDS011;43407;51.828;-2.298;2023-03-12T10:26:13;34.65;;;7.28;;
34896;SDS011;43407;51.828;-2.298;2023-03-12T10:28:44;37.88;;;7.07;;
34896;SDS011;43407;51.828;-2.298;2023-03-12T10:31:55;42.50;;;8.20;;
34896;SDS011;43407;51.828;-2.298;2023-03-12T10:34:11;40.45;;;7.00;;
34896;SDS011;43407;51.828;-2.298;2023-03-12T10:36:41;43.70;;;8.63;;
34896;SDS011;43407;51.828;-2.298;2023-03-12T10:39:12;44.53;;;8.00;;
34896;SDS011;43407;51.828;-2.298;2023-03-12T10:41:40;44.92;;;8.27;;
34896;SDS011;43407;51.828;-2.298;2023-03-12T10:44:07;48.08;;;8.00;;
34896;SDS011;43407;51.828;-2.298;2023-03-12T10:51:56;46.25;;;8.23;;
34896;SDS011;43407;51.828;-2.298;2023-03-12T10:54:26;39.00;;;8.02;;
34896;SDS011;43407;51.828;-2.298;2023-03-12T10:57:12;46.17;;;7.30;;
34896;SDS011;43407;51.828;-2.298;2023-03-12T10:59:40;41.78;;;8.38;;
34896;SDS011;43407;51.828;-2.298;2023-03-12T11:04:53;46.13;;;8.07;;
34896;SDS011;43407;51.828;-2.298;2023-03-12T11:07:21;40.40;;;7.32;;
34896;SDS011;43407;51.828;-2.298;2023-03-12T11:10:02;37.90;;;8.93;;
34896;SDS011;43407;51.828;-2.298;2023-03-12T11:12:37;43.35;;;7.75;;
34896;SDS011;43407;51.828;-2.298;2023-03-12T11:15:20;32.42;;;6.78;;
34896;SDS011;43407;51.828;-2.298;2023-03-12T11:17:46;44.15;;;7.97;;
34896;SDS011;43407;51.828;-2.298;2023-03-12T11:22:53;36.45;;;7.32;;
34896;SDS011;43407;51.828;-2.298;2023-03-12T11:25:20;32.70;;;7.03;;
34896;SDS011;43407;51.828;-2.298;2023-03-12T11:27:54;38.22;;;6.50;;
34896;SDS011;43407;51.828;-2.298;2023-03-12T11:30:31;36.50;;;6.50;;
34896;SDS011;43407;51.828;-2.298;2023-03-12T11:33:08;39.50;;;6.50;;
34896;SDS011;43407;51.828;-2.298;2023-03-12T11:35:48;31.13;;;6.65;;
34896;SDS011;43407;51.828;-2.298;2023-03-12T11:38:25;32.92;;;6.40;;
34896;SDS011;43407;51.828;-2.298;2023-03-12T11:44:26;30.88;;;5.93;;
34896;SDS011;43407;51.828;-2.298;2023-03-12T11:52:47;30.52;;;6.53;;
34896;SDS011;43407;51.828;-2.298;2023-03-12T11:58:24;30.65;;;5.57;;
34896;SDS011;43407;51.828;-2.298;2023-03-12T12:11:58;30.20;;;6.22;;
34896;SDS011;43407;51.828;-2.298;2023-03-12T12:17:15;29.48;;;6.70;;
34896;SDS011;43407;51.828;-2.298;2023-03-12T12:20:17;31.60;;;6.07;;
34896;SDS011;43407;51.828;-2.298;2023-03-12T12:28:20;30.70;;;6.05;;
34896;SDS011;43407;51.828;-2.298;2023-03-12T12:33:59;26.10;;;5.20;;
34896;SDS011;43407;51.828;-2.298;2023-03-12T12:36:30;27.75;;;5.57;;
34896;SDS011;43407;51.828;-2.298;2023-03-12T12:38:59;29.13;;;6.05;;
34896;SDS011;43407;51.828;-2.298;2023-03-12T12:41:38;24.52;;;5.40;;
34896;SDS011;43407;51.828;-2.298;2023-03-12T12:44:11;26.13;;;5.03;;
34896;SDS011;43407;51.828;-2.298;2023-03-12T12:46:43;36.53;;;7.00;;
34896;SDS011;43407;51.828;-2.298;2023-03-12T12:49:26;26.47;;;5.40;;
34896;SDS011;43407;51.828;-2.298;2023-03-12T12:52:02;30.17;;;5.53;;
34896;SDS011;43407;51.828;-2.298;2023-03-12T12:54:33;26.35;;;6.00;;
34896;SDS011;43407;51.828;-2.298;2023-03-12T12:57:14;26.42;;;5.88;;
34896;SDS011;43407;51.828;-2.298;2023-03-12T13:02:47;28.33;;;5.88;;
34896;SDS011;43407;51.828;-2.298;2023-03-12T13:05:57;21.58;;;5.70;;
34896;SDS011;43407;51.828;-2.298;2023-03-12T13:08:02;22.25;;;4.90;;
34896;SDS011;43407;51.828;-2.298;2023-03-12T13:12:56;24.20;;;4.82;;
34896;SDS011;43407;51.828;-2.298;2023-03-12T13:20:19;25.60;;;5.20;;
34896;SDS011;43407;51.828;-2.298;2023-03-12T13:25:41;24.25;;;5.13;;
34896;SDS011;43407;51.828;-2.298;2023-03-12T13:31:03;22.88;;;5.20;;
34896;SDS011;43407;51.828;-2.298;2023-03-12T13:33:54;27.85;;;5.50;;
34896;SDS011;43407;51.828;-2.298;2023-03-12T13:36:23;23.33;;;4.90;;
34896;SDS011;43407;51.828;-2.298;2023-03-12T13:39:06;23.73;;;5.25;;
34896;SDS011;43407;51.828;-2.298;2023-03-12T13:41:48;27.25;;;4.88;;
34896;SDS011;43407;51.828;-2.298;2023-03-12T13:49:27;25.63;;;4.97;;
34896;SDS011;43407;51.828;-2.298;2023-03-12T13:54:49;17.63;;;4.38;;
34896;SDS011;43407;51.828;-2.298;2023-03-12T14:00:11;22.45;;;4.70;;
34896;SDS011;43407;51.828;-2.298;2023-03-12T14:02:52;21.10;;;4.53;;
34896;SDS011;43407;51.828;-2.298;2023-03-12T14:05:18;18.88;;;3.80;;
34896;SDS011;43407;51.828;-2.298;2023-03-12T14:07:50;17.67;;;3.95;;
34896;SDS011;43407;51.828;-2.298;2023-03-12T14:15:47;26.63;;;4.90;;
34896;SDS011;43407;51.828;-2.298;2023-03-12T14:18:22;20.38;;;4.43;;
34896;SDS011;43407;51.828;-2.298;2023-03-12T14:20:59;18.65;;;4.43;;
34896;SDS011;43407;51.828;-2.298;2023-03-12T14:23:37;16.52;;;3.75;;
34896;SDS011;43407;51.828;-2.298;2023-03-12T14:26:12;24.73;;;4.85;;
34896;SDS011;43407;51.828;-2.298;2023-03-12T14:28:44;28.25;;;4.95;;
34896;SDS011;43407;51.828;-2.298;2023-03-12T14:31:12;19.73;;;4.30;;
34896;SDS011;43407;51.828;-2.298;2023-03-12T14:36:28;22.13;;;4.07;;
34896;SDS011;43407;51.828;-2.298;2023-03-12T14:39:07;22.95;;;4.50;;
34896;SDS011;43407;51.828;-2.298;2023-03-12T14:41:44;23.27;;;4.15;;
34896;SDS011;43407;51.828;-2.298;2023-03-12T14:44:21;20.33;;;4.18;;
34896;SDS011;43407;51.828;-2.298;2023-03-12T14:46:54;17.55;;;3.92;;
34896;SDS011;43407;51.828;-2.298;2023-03-12T14:49:21;21.77;;;3.75;;
34896;SDS011;43407;51.828;-2.298;2023-03-12T14:51:47;17.38;;;3.63;;
34896;SDS011;43407;51.828;-2.298;2023-03-12T14:54:17;16.70;;;4.50;;
34896;SDS011;43407;51.828;-2.298;2023-03-12T14:56:44;18.52;;;4.00;;
34896;SDS011;43407;51.828;-2.298;2023-03-12T15:02:12;15.93;;;3.78;;
34896;SDS011;43407;51.828;-2.298;2023-03-12T15:04:39;16.48;;;3.97;;
34896;SDS011;43407;51.828;-2.298;2023-03-12T15:07:05;14.10;;;3.35;;
34896;SDS011;43407;51.828;-2.298;2023-03-12T15:09:34;17.00;;;3.80;;
34896;SDS011;43407;51.828;-2.298;2023-03-12T15:12:07;17.92;;;3.20;;
34896;SDS011;43407;51.828;-2.298;2023-03-12T15:14:48;15.43;;;4.13;;
34896;SDS011;43407;51.828;-2.298;2023-03-12T15:17:17;15.43;;;3.72;;
34896;SDS011;43407;51.828;-2.298;2023-03-12T15:19:44;15.40;;;4.40;;
34896;SDS011;43407;51.828;-2.298;2023-03-12T15:22:14;17.40;;;3.85;;
34896;SDS011;43407;51.828;-2.298;2023-03-12T15:24:42;14.70;;;3.70;;
34896;SDS011;43407;51.828;-2.298;2023-03-12T15:27:19;23.13;;;3.47;;
34896;SDS011;43407;51.828;-2.298;2023-03-12T15:29:54;16.65;;;3.67;;
34896;SDS011;43407;51.828;-2.298;2023-03-12T15:32:22;11.80;;;3.08;;
34896;SDS011;43407;51.828;-2.298;2023-03-12T15:34:52;15.85;;;3.30;;
34896;SDS011;43407;51.828;-2.298;2023-03-12T15:37:28;13.75;;;3.10;;
34896;SDS011;43407;51.828;-2.298;2023-03-12T15:40:24;19.63;;;4.22;;
34896;SDS011;43407;51.828;-2.298;2023-03-12T15:42:53;15.55;;;3.47;;
34896;SDS011;43407;51.828;-2.298;2023-03-12T15:45:27;16.30;;;3.78;;
34896;SDS011;43407;51.828;-2.298;2023-03-12T15:48:13;18.10;;;3.30;;
34896;SDS011;43407;51.828;-2.298;2023-03-12T15:51:12;16.70;;;3.50;;
34896;SDS011;43407;51.828;-2.298;2023-03-12T15:53:39;17.20;;;3.83;;
34896;SDS011;43407;51.828;-2.298;2023-03-12T15:58:39;20.08;;;3.60;;
34896;SDS011;43407;51.828;-2.298;2023-03-12T16:03:36;13.80;;;3.35;;
34896;SDS011;43407;51.828;-2.298;2023-03-12T16:06:03;14.55;;;3.83;;
34896;SDS011;43407;51.828;-2.298;2023-03-12T16:08:34;13.57;;;3.42;;
34896;SDS011;43407;51.828;-2.298;2023-03-12T16:11:03;14.48;;;3.67;;
34896;SDS011;43407;51.828;-2.298;2023-03-12T16:13:29;15.13;;;2.90;;
34896;SDS011;43407;51.828;-2.298;2023-03-12T16:15:56;17.90;;;3.40;;
34896;SDS011;43407;51.828;-2.298;2023-03-12T16:18:22;18.92;;;4.22;;
34896;SDS011;43407;51.828;-2.298;2023-03-12T16:20:49;19.08;;;4.57;;